Time;durP1;ratioP1;P1;durP2;ratioP2;P2;SDS_P1;SDS_P2;PMS_P1;PMS_P2;Temp;Humidity;BMP_temperature;BMP_pressure;BME280_temperature;BME280_humidity;BME280_pressure;Samples;Min_cycle;Max_cycle;Signal;HPM_P1;HPM_P2
2024/01/20 05:01:06;;;;;;;6.47;1.63;;;-3.30;97.30;;;;;;5918694;22;20470;-91
2024/01/20 05:03:31;;;;;;;1.43;1.33;;;-3.20;97.30;;;;;;5029596;28;20478;-91
2024/01/20 05:05:58;;;;;;;1.07;0.97;;;-3.20;97.30;;;;;;5041765;28;20423;-91
2024/01/20 05:08:23;;;;;;;1.00;0.90;;;-3.30;97.30;;;;;;5034522;28;20188;-92
2024/01/20 05:10:51;;;;;;;1.53;1.43;;;-3.20;97.30;;;;;;5033607;28;20444;-92
2024/01/20 05:13:17;;;;;;;1.10;1.00;;;-3.20;97.30;;;;;;5018554;28;20180;-91
2024/01/20 05:15:42;;;;;;;1.00;0.90;;;-3.20;97.30;;;;;;5017820;28;20499;-92
2024/01/20 05:18:13;;;;;;;0.90;0.80;;;-3.20;97.30;;;;;;5022066;28;20198;-90
2024/01/20 05:20:49;;;;;;;;;;;;;;;;;;;;;
2024/01/20 05:23:14;;;;;;;8.03;1.63;;;-3.20;97.30;;;;;;5034363;28;20451;-91
2024/01/20 05:25:42;;;;;;;1.73;1.63;;;-3.20;97.30;;;;;;5023842;28;20440;-92
2024/01/20 05:28:13;;;;;;;1.13;1.03;;;-3.20;97.30;;;;;;5031556;28;20248;-90
2024/01/20 05:30:38;;;;;;;1.47;1.37;;;-3.20;97.30;;;;;;5018128;28;20432;-88
2024/01/20 05:33:04;;;;;;;2.00;1.67;;;-3.20;97.30;;;;;;5017741;28;20444;-90
2024/01/20 05:35:32;;;;;;;1.00;0.90;;;-3.20;97.30;;;;;;5024837;28;20172;-90
2024/01/20 05:38:00;;;;;;;1.00;0.90;;;-3.20;97.30;;;;;;5027885;28;20215;-91
2024/01/20 05:40:26;;;;;;;1.00;0.90;;;-3.20;97.30;;;;;;5023703;28;20462;-91
2024/01/20 05:42:51;;;;;;;1.53;1.43;;;-3.20;97.30;;;;;;5021706;28;20415;-91
2024/01/20 05:45:22;;;;;;;1.00;0.90;;;-3.30;97.30;;;;;;5030924;28;20184;-91
2024/01/20 05:47:52;;;;;;;1.10;1.00;;;-3.20;97.30;;;;;;5017555;28;20211;-91
2024/01/20 05:50:17;;;;;;;1.00;0.90;;;-3.30;97.30;;;;;;5025502;28;20470;-91
2024/01/20 05:52:43;;;;;;;1.20;1.10;;;-3.30;97.30;;;;;;5017576;28;20448;-92
2024/01/20 05:55:09;;;;;;;1.97;1.20;;;-3.30;97.30;;;;;;5019632;28;20213;-90
2024/01/20 05:57:34;;;;;;;1.00;0.90;;;-3.30;97.30;;;;;;5022390;28;20236;-91
2024/01/20 06:00:00;;;;;;;1.47;1.37;;;-3.30;97.30;;;;;;5029381;28;20221;-93
2024/01/20 06:02:25;;;;;;;1.00;0.90;;;-3.30;97.30;;;;;;5019094;28;20228;-92
2024/01/20 06:04:53;;;;;;;1.50;1.40;;;-3.30;97.30;;;;;;5024113;28;20189;-91
2024/01/20 06:07:18;;;;;;;1.73;1.63;;;-3.30;97.30;;;;;;5025168;28;20180;-91
2024/01/20 06:09:44;;;;;;;1.10;1.00;;;-3.30;97.30;;;;;;5033629;28;20416;-92
2024/01/20 06:12:12;;;;;;;1.00;0.90;;;-3.30;97.30;;;;;;5029860;28;20177;-91
2024/01/20 06:14:41;;;;;;;1.63;1.60;;;-3.30;97.30;;;;;;5020981;28;20180;-91
2024/01/20 06:17:06;;;;;;;1.90;1.30;;;-3.30;97.30;;;;;;5024625;28;20466;-91
2024/01/20 06:19:32;;;;;;;17.13;3.27;;;-3.30;97.30;;;;;;5021104;28;20436;-90
2024/01/20 06:22:05;;;;;;;1.03;0.93;;;-3.40;97.30;;;;;;5021722;28;20189;-90
2024/01/20 06:24:33;;;;;;;1.10;1.00;;;-3.40;97.30;;;;;;5018137;28;20174;-91
2024/01/20 06:27:02;;;;;;;1.60;1.50;;;-3.40;97.30;;;;;;5006779;28;20444;-90
2024/01/20 06:29:34;;;;;;;1.10;1.00;;;-3.40;97.30;;;;;;5016658;28;20432;-89
2024/01/20 06:32:02;;;;;;;1.27;1.17;;;-3.40;97.30;;;;;;5013399;28;20460;-91
2024/01/20 06:34:33;;;;;;;1.20;1.10;;;-3.40;97.30;;;;;;5024213;28;20436;-90
2024/01/20 06:37:13;;;;;;;1.40;1.30;;;-3.40;97.30;;;;;;5018079;28;20471;-90
2024/01/20 06:40:01;;;;;;;1.00;0.90;;;-3.40;97.30;;;;;;5028374;28;20483;-92
2024/01/20 06:42:32;;;;;;;1.07;0.97;;;-3.40;97.30;;;;;;5027622;28;20464;-91
2024/01/20 06:45:03;;;;;;;1.37;1.27;;;-3.40;97.30;;;;;;5022620;28;20424;-91
2024/01/20 06:47:32;;;;;;;1.90;1.80;;;-3.40;97.30;;;;;;5024491;28;20431;-91
2024/01/20 06:50:21;;;;;;;1.53;1.43;;;-3.40;97.30;;;;;;5025314;28;20436;-91
2024/01/20 06:52:52;;;;;;;2.60;1.77;;;-3.40;97.30;;;;;;5015110;28;20428;-89
2024/01/20 06:55:25;;;;;;;2.00;1.47;;;-3.50;97.30;;;;;;5024260;28;20412;-92
2024/01/20 06:57:53;;;;;;;1.00;0.90;;;-3.50;97.30;;;;;;5015635;28;20484;-90
2024/01/20 07:00:23;;;;;;;2.37;2.17;;;-3.50;97.30;;;;;;5011596;28;20506;-90
2024/01/20 07:02:48;;;;;;;1.00;0.90;;;-3.50;97.30;;;;;;5014406;28;20502;-90
2024/01/20 07:05:22;;;;;;;1.23;1.17;;;-3.50;97.30;;;;;;5012234;28;20429;-90
2024/01/20 07:07:51;;;;;;;1.40;1.30;;;-3.50;97.30;;;;;;5009840;28;20178;-91
2024/01/20 07:10:22;;;;;;;1.00;0.90;;;-3.50;97.30;;;;;;5017987;28;20460;-90
2024/01/20 07:12:51;;;;;;;1.00;0.90;;;-3.50;97.30;;;;;;5016285;28;20471;-91
2024/01/20 07:15:22;;;;;;;1.40;1.30;;;-3.50;97.30;;;;;;5006698;28;20440;-90
2024/01/20 07:17:56;;;;;;;1.03;0.93;;;-3.50;97.30;;;;;;5006840;28;20451;-90
2024/01/20 07:20:25;;;;;;;1.10;1.00;;;-3.50;97.30;;;;;;5014308;28;20407;-90
2024/01/20 07:22:53;;;;;;;6.27;2.27;;;-3.50;97.30;;;;;;5029444;28;20446;-92
2024/01/20 07:25:19;;;;;;;1.50;1.40;;;-3.50;97.30;;;;;;5030220;28;20432;-91
2024/01/20 07:27:45;;;;;;;2.23;2.03;;;-3.50;97.30;;;;;;5029155;28;20447;-89
2024/01/20 07:30:11;;;;;;;1.10;1.00;;;-3.50;97.30;;;;;;5026964;28;20184;-91
2024/01/20 07:32:42;;;;;;;1.70;1.60;;;-3.50;97.30;;;;;;5021145;28;20456;-91
2024/01/20 07:35:11;;;;;;;1.40;1.30;;;-3.50;97.30;;;;;;5023621;28;20189;-92
2024/01/20 07:37:37;;;;;;;1.40;1.30;;;-3.40;97.30;;;;;;5010965;28;20511;-91
2024/01/20 07:40:04;;;;;;;1.20;1.10;;;-3.40;97.30;;;;;;5010456;28;20420;-92
2024/01/20 07:42:32;;;;;;;1.23;1.13;;;-3.40;97.30;;;;;;5012368;28;20205;-90
2024/01/20 07:44:59;;;;;;;1.03;0.93;;;-3.40;97.30;;;;;;5008400;28;20428;-91
2024/01/20 07:47:24;;;;;;;0.90;0.80;;;-3.40;97.30;;;;;;5013637;28;20443;-91
2024/01/20 07:49:50;;;;;;;1.00;0.90;;;-3.30;97.30;;;;;;5011589;28;20416;-92
2024/01/20 07:52:15;;;;;;;1.30;1.20;;;-3.30;97.30;;;;;;5011662;28;20201;-92
2024/01/20 07:54:43;;;;;;;1.00;0.90;;;-3.20;97.30;;;;;;5012902;28;20184;-92
2024/01/20 07:57:25;;;;;;;2.37;2.17;;;-3.20;97.30;;;;;;5019376;28;20206;-92
2024/01/20 07:59:53;;;;;;;1.00;0.90;;;-3.10;97.30;;;;;;5017443;28;20420;-92
2024/01/20 08:02:34;;;;;;;7.83;1.27;;;-3.10;97.30;;;;;;5017924;28;20467;-92
2024/01/20 08:05:02;;;;;;;3.73;1.77;;;-3.00;97.30;;;;;;5043900;28;20414;-94
2024/01/20 08:07:30;;;;;;;1.07;0.97;;;-3.00;97.30;;;;;;5021463;28;20471;-92
2024/01/20 08:09:56;;;;;;;1.30;1.20;;;-3.00;97.30;;;;;;5011225;28;20408;-93
2024/01/20 08:12:21;;;;;;;1.30;1.20;;;-2.90;97.30;;;;;;5016458;28;20463;-93
2024/01/20 08:14:47;;;;;;;1.00;0.90;;;-2.90;97.30;;;;;;5016243;28;20183;-92
2024/01/20 08:17:12;;;;;;;2.20;1.30;;;-2.80;97.30;;;;;;5023165;28;20201;-92
2024/01/20 08:19:38;;;;;;;1.17;1.07;;;-2.80;97.30;;;;;;5028068;28;20270;-91
2024/01/20 08:22:05;;;;;;;1.70;1.60;;;-2.70;97.30;;;;;;5023960;28;20400;-92
2024/01/20 08:24:36;;;;;;;1.40;1.30;;;-2.70;97.30;;;;;;5018455;28;20189;-91
2024/01/20 08:27:02;;;;;;;2.07;1.90;;;-2.60;97.30;;;;;;5016490;28;20801;-92
2024/01/20 08:29:28;;;;;;;1.70;1.47;;;-2.60;97.30;;;;;;5017793;28;20469;-91
2024/01/20 08:31:54;;;;;;;1.10;1.00;;;-2.60;97.30;;;;;;5021798;28;20523;-92
2024/01/20 08:34:45;;;;;;;1.10;1.00;;;-2.50;97.30;;;;;;5026431;28;20172;-93
2024/01/20 08:37:44;;;;;;;1.33;1.30;;;-2.40;97.30;;;;;;5017403;28;20216;-93
2024/01/20 08:40:16;;;;;;;1.10;1.00;;;-2.40;97.30;;;;;;5014995;28;20432;-93
2024/01/20 08:42:44;;;;;;;1.13;1.10;;;-2.30;97.30;;;;;;5018973;28;20459;-92
2024/01/20 08:45:15;;;;;;;1.20;1.10;;;-2.30;97.30;;;;;;5027843;28;20414;-93
2024/01/20 08:47:43;;;;;;;1.17;1.07;;;-2.20;97.30;;;;;;5020484;28;20503;-93
2024/01/20 08:50:09;;;;;;;0.90;0.80;;;-2.20;97.30;;;;;;5020806;28;20458;-93
2024/01/20 08:52:53;;;;;;;1.10;1.00;;;-2.20;97.30;;;;;;5019106;28;20444;-93
2024/01/20 08:55:24;;;;;;;0.90;0.80;;;-2.10;97.30;;;;;;5014665;28;20424;-93
2024/01/20 08:57:56;;;;;;;3.90;2.30;;;-2.10;97.30;;;;;;5019349;28;20494;-91
2024/01/20 09:00:22;;;;;;;4.50;2.50;;;-2.10;97.30;;;;;;5017700;28;20436;-93
2024/01/20 09:02:56;;;;;;;16.37;2.20;;;-2.00;97.30;;;;;;5005784;28;20551;-93
2024/01/20 09:05:21;;;;;;;2.80;2.60;;;-1.90;97.30;;;;;;5008918;28;20478;-92
2024/01/20 09:07:49;;;;;;;1.40;1.30;;;-1.90;97.30;;;;;;5006096;28;20425;-93
2024/01/20 09:10:14;;;;;;;1.23;1.13;;;-1.90;97.30;;;;;;5016073;28;20181;-92
2024/01/20 09:12:40;;;;;;;1.63;1.53;;;-1.80;97.30;;;;;;5007131;28;20452;-93
2024/01/20 09:15:06;;;;;;;5.20;1.67;;;-1.80;97.30;;;;;;5003307;28;20186;-93
2024/01/20 09:17:31;;;;;;;1.67;1.57;;;-1.70;97.30;;;;;;5008070;28;20282;-93
2024/01/20 09:19:57;;;;;;;0.90;0.80;;;-1.70;97.30;;;;;;5012215;28;20174;-93
2024/01/20 09:22:22;;;;;;;1.77;1.67;;;-1.60;97.30;;;;;;5016329;28;20211;-92
2024/01/20 09:24:48;;;;;;;1.47;1.37;;;-1.60;97.30;;;;;;5011863;28;20677;-93
2024/01/20 09:27:14;;;;;;;2.70;2.50;;;-1.50;97.30;;;;;;5023295;28;20184;-94
2024/01/20 09:29:42;;;;;;;1.53;1.10;;;-1.50;97.30;;;;;;5034356;28;20177;-94
2024/01/20 09:32:08;;;;;;;0.97;0.87;;;-1.40;97.30;;;;;;5025025;28;20235;-94
2024/01/20 09:34:34;;;;;;;1.57;1.47;;;-1.40;97.30;;;;;;5016255;28;20929;-95
2024/01/20 09:37:03;;;;;;;1.43;1.30;;;-1.30;97.30;;;;;;5025111;28;20209;-96
2024/01/20 09:39:34;;;;;;;1.40;1.30;;;-1.30;97.30;;;;;;5023835;28;20435;-95
2024/01/20 09:42:00;;;;;;;2.00;1.53;;;-1.30;97.30;;;;;;5019247;28;20454;-95
2024/01/20 09:44:26;;;;;;;0.90;0.80;;;-1.20;97.30;;;;;;5028379;28;20451;-95
2024/01/20 09:46:52;;;;;;;2.43;2.23;;;-1.20;97.30;;;;;;5023192;28;20419;-95
2024/01/20 09:49:18;;;;;;;1.27;1.17;;;-1.20;97.30;;;;;;5029746;28;20550;-94
2024/01/20 09:51:54;;;;;;;1.50;1.40;;;-1.20;97.30;;;;;;5019656;28;20446;-96
2024/01/20 09:54:24;;;;;;;1.70;1.60;;;-1.20;97.30;;;;;;5020455;28;20496;-96
2024/01/20 09:56:53;;;;;;;3.80;2.07;;;-1.10;97.30;;;;;;5028135;28;20913;-95
2024/01/20 09:59:22;;;;;;;3.10;2.17;;;-1.10;97.30;;;;;;5028753;28;20419;-95
2024/01/20 10:01:52;;;;;;;4.60;1.63;;;-1.00;97.30;;;;;;5021279;28;20476;-95
2024/01/20 10:04:19;;;;;;;2.20;1.63;;;-0.90;97.30;;;;;;5070846;23;20593;-68
2024/01/20 10:06:45;;;;;;;1.50;1.40;;;-0.80;97.30;;;;;;5046955;28;20475;-68
2024/01/20 10:09:11;;;;;;;1.63;1.53;;;-0.80;97.30;;;;;;5049317;28;20453;-67
2024/01/20 10:11:36;;;;;;;2.37;1.20;;;-0.70;97.30;;;;;;5060552;28;20204;-69
2024/01/20 10:14:03;;;;;;;6.20;3.27;;;-0.60;97.30;;;;;;5044321;28;20947;-69
2024/01/20 10:16:39;;;;;;;1.57;1.47;;;-0.50;97.30;;;;;;5053844;28;20191;-67
2024/01/20 10:19:04;;;;;;;1.33;1.23;;;-0.40;97.30;;;;;;5027003;28;20758;-68
2024/01/20 10:21:38;;;;;;;1.77;1.67;;;-0.40;97.30;;;;;;5029931;28;20940;-69
2024/01/20 10:24:04;;;;;;;1.10;1.00;;;-0.30;97.30;;;;;;5044730;28;20611;-68
2024/01/20 10:26:30;;;;;;;3.13;1.77;;;-0.30;97.30;;;;;;5029596;28;20434;-65
2024/01/20 10:28:55;;;;;;;2.40;2.20;;;-0.30;97.30;;;;;;5024229;28;20599;-65
2024/01/20 10:31:21;;;;;;;2.90;1.87;;;-0.20;97.30;;;;;;5023941;28;20665;-65
2024/01/20 10:33:48;;;;;;;2.73;1.47;;;-0.20;97.30;;;;;;5024039;28;20184;-66
2024/01/20 10:36:17;;;;;;;1.13;1.03;;;-0.20;97.00;;;;;;5035075;28;20186;-65
2024/01/20 10:38:48;;;;;;;2.73;1.53;;;0.00;97.30;;;;;;5032270;28;20501;-66
2024/01/20 10:41:15;;;;;;;1.00;0.90;;;0.10;97.10;;;;;;5029232;28;20434;-66
2024/01/20 10:43:52;;;;;;;1.10;1.00;;;0.10;96.90;;;;;;5044122;28;20509;-68
2024/01/20 10:46:23;;;;;;;4.23;2.83;;;0.20;96.90;;;;;;5039596;28;20456;-66
2024/01/20 10:48:52;;;;;;;12.37;3.30;;;0.20;96.80;;;;;;5032258;28;20475;-66
2024/01/20 10:51:28;;;;;;;2.07;1.93;;;0.20;96.90;;;;;;5041827;28;20425;-67
2024/01/20 10:53:57;;;;;;;2.90;2.70;;;0.30;96.90;;;;;;5035514;28;20931;-67
2024/01/20 10:56:24;;;;;;;1.77;1.67;;;0.30;96.60;;;;;;5033901;28;20877;-67
2024/01/20 10:59:01;;;;;;;1.43;1.33;;;0.30;96.60;;;;;;5025105;28;20450;-67
2024/01/20 11:01:27;;;;;;;2.00;1.23;;;0.40;96.70;;;;;;5026069;28;20442;-66
2024/01/20 11:03:55;;;;;;;1.50;1.40;;;0.40;96.70;;;;;;5018717;28;20488;-67
2024/01/20 11:06:23;;;;;;;2.43;2.30;;;0.50;96.40;;;;;;5031086;28;20795;-67
2024/01/20 11:08:53;;;;;;;2.60;2.40;;;0.60;96.10;;;;;;5030435;28;20414;-66
2024/01/20 11:11:19;;;;;;;4.00;1.73;;;0.70;96.00;;;;;;5048684;28;20418;-69
2024/01/20 11:13:47;;;;;;;3.43;2.30;;;0.80;95.70;;;;;;5035387;28;20865;-66
2024/01/20 11:16:20;;;;;;;1.57;1.30;;;0.90;95.70;;;;;;5045862;28;20929;-69
2024/01/20 11:18:45;;;;;;;2.40;1.70;;;0.80;95.30;;;;;;5027957;28;20509;-68
2024/01/20 11:21:19;;;;;;;1.43;1.37;;;0.80;95.00;;;;;;5035036;28;20491;-67
2024/01/20 11:24:00;;;;;;;0.90;0.80;;;1.00;95.40;;;;;;5037501;28;20232;-67
2024/01/20 11:26:33;;;;;;;0.97;0.87;;;0.90;94.20;;;;;;5032195;28;20479;-70
2024/01/20 11:29:01;;;;;;;1.60;1.50;;;0.90;94.30;;;;;;5050769;28;20533;-68
2024/01/20 11:31:27;;;;;;;0.90;0.80;;;0.90;94.90;;;;;;5032695;28;20445;-66
2024/01/20 11:33:53;;;;;;;1.87;1.63;;;1.00;94.60;;;;;;5016499;28;20434;-66
2024/01/20 11:36:19;;;;;;;4.10;1.13;;;1.20;94.30;;;;;;5024179;28;20468;-66
2024/01/20 11:38:47;;;;;;;1.67;1.57;;;1.30;93.90;;;;;;5024262;28;20176;-67
2024/01/20 11:41:17;;;;;;;3.10;2.10;;;1.20;93.40;;;;;;5024041;28;20295;-66
2024/01/20 11:43:45;;;;;;;18.07;1.50;;;1.30;93.60;;;;;;5044214;28;20431;-66
2024/01/20 11:46:11;;;;;;;1.23;1.13;;;1.20;93.30;;;;;;5031069;28;20415;-69
2024/01/20 11:48:37;;;;;;;5.50;1.33;;;1.40;93.70;;;;;;5032465;28;20425;-68
2024/01/20 11:51:03;;;;;;;1.03;0.93;;;1.30;92.70;;;;;;5032358;28;20176;-66
2024/01/20 11:53:28;;;;;;;3.13;2.93;;;1.30;93.50;;;;;;5023837;28;20225;-65
2024/01/20 11:55:59;;;;;;;1.27;1.17;;;1.50;93.10;;;;;;5073848;22;21010;-81
2024/01/20 11:58:25;;;;;;;3.33;3.10;;;1.30;92.50;;;;;;5041055;28;20218;-79
2024/01/20 12:00:52;;;;;;;1.47;1.37;;;1.40;93.10;;;;;;5050941;28;20414;-79
2024/01/20 12:03:18;;;;;;;1.10;1.00;;;1.60;93.10;;;;;;5035939;28;20476;-85
2024/01/20 12:05:44;;;;;;;1.30;1.20;;;1.60;92.90;;;;;;5029151;28;20534;-81
2024/01/20 12:08:10;;;;;;;1.07;1.00;;;1.60;93.20;;;;;;5029101;28;20454;-80
2024/01/20 12:10:37;;;;;;;1.17;1.07;;;1.60;92.70;;;;;;5019818;28;20564;-81
2024/01/20 12:13:03;;;;;;;1.43;1.33;;;1.60;92.80;;;;;;5032941;28;20461;-76
2024/01/20 12:15:41;;;;;;;1.67;1.40;;;1.50;93.10;;;;;;5043038;28;20226;-81
2024/01/20 12:18:07;;;;;;;1.37;1.27;;;1.50;93.50;;;;;;5039978;28;20213;-82
2024/01/20 12:20:36;;;;;;;1.83;1.77;;;1.50;93.40;;;;;;5045778;28;20821;-76
2024/01/20 12:23:02;;;;;;;3.50;2.00;;;1.60;93.80;;;;;;5045752;28;20524;-80
2024/01/20 12:25:29;;;;;;;2.27;2.10;;;1.80;93.30;;;;;;5019383;28;20920;-82
2024/01/20 12:27:54;;;;;;;1.00;0.90;;;1.90;93.20;;;;;;5026388;28;20426;-74
2024/01/20 12:30:20;;;;;;;2.13;1.97;;;1.90;92.90;;;;;;5025753;28;20787;-78
2024/01/20 12:32:46;;;;;;;1.57;1.47;;;1.90;93.50;;;;;;5019435;28;20219;-75
2024/01/20 12:35:11;;;;;;;1.17;1.07;;;2.10;93.30;;;;;;5020373;28;20676;-74
2024/01/20 12:37:37;;;;;;;1.80;1.70;;;2.20;92.90;;;;;;5015480;28;20207;-81
2024/01/20 12:40:05;;;;;;;1.97;1.57;;;2.20;92.60;;;;;;5015187;28;20267;-72
2024/01/20 12:42:32;;;;;;;1.27;1.17;;;2.40;92.80;;;;;;5016429;28;20451;-74
2024/01/20 12:44:58;;;;;;;1.20;1.10;;;2.60;92.00;;;;;;5019437;28;20438;-80
2024/01/20 12:47:24;;;;;;;1.57;1.47;;;2.70;92.00;;;;;;5019757;28;20426;-76
2024/01/20 12:49:51;;;;;;;3.50;2.50;;;2.80;91.50;;;;;;5021763;28;20420;-75
2024/01/20 12:52:17;;;;;;;1.40;1.30;;;2.70;91.50;;;;;;5024558;28;20479;-76
2024/01/20 12:54:42;;;;;;;1.40;1.30;;;2.60;91.60;;;;;;5016868;28;20843;-74
2024/01/20 12:57:08;;;;;;;1.00;0.90;;;2.80;92.30;;;;;;5028528;28;20463;-81
2024/01/20 12:59:33;;;;;;;2.47;2.07;;;2.60;91.60;;;;;;5022861;28;20227;-76
2024/01/20 13:01:59;;;;;;;1.63;1.50;;;2.70;92.00;;;;;;5019938;28;20262;-79
2024/01/20 13:04:25;;;;;;;1.27;1.17;;;2.90;91.70;;;;;;5016964;28;20173;-76
2024/01/20 13:06:51;;;;;;;1.63;1.23;;;2.90;92.10;;;;;;5012734;28;20424;-74
2024/01/20 13:09:17;;;;;;;3.80;2.13;;;2.90;91.40;;;;;;5029057;28;20923;-77
2024/01/20 13:11:43;;;;;;;2.30;1.53;;;2.80;91.60;;;;;;5014464;28;20403;-76
2024/01/20 13:14:09;;;;;;;0.90;0.80;;;2.70;91.80;;;;;;5025990;28;20416;-76
2024/01/20 13:16:34;;;;;;;2.30;1.77;;;3.00;91.70;;;;;;5031064;28;20257;-71
2024/01/20 13:19:00;;;;;;;6.13;1.93;;;2.90;91.60;;;;;;5013231;28;20177;-80
2024/01/20 13:21:26;;;;;;;1.07;1.03;;;2.90;91.70;;;;;;5020129;28;20677;-78
2024/01/20 13:23:51;;;;;;;1.90;1.80;;;2.80;91.60;;;;;;5024938;28;20319;-78
2024/01/20 13:26:17;;;;;;;4.93;1.57;;;2.80;91.80;;;;;;5025766;28;20661;-76
2024/01/20 13:28:47;;;;;;;1.10;1.00;;;2.90;92.30;;;;;;5014289;28;20176;-75
2024/01/20 13:31:12;;;;;;;8.50;2.10;;;3.20;91.70;;;;;;5022476;28;20435;-80
2024/01/20 13:33:38;;;;;;;1.63;1.30;;;3.10;91.20;;;;;;5026620;28;20953;-80
2024/01/20 13:36:04;;;;;;;4.33;3.60;;;3.10;91.50;;;;;;5021908;28;20642;-76
2024/01/20 13:38:29;;;;;;;1.67;1.57;;;3.30;91.70;;;;;;5023477;28;20219;-78
2024/01/20 13:40:57;;;;;;;1.67;1.20;;;3.50;91.40;;;;;;5019362;28;20422;-73
2024/01/20 13:43:22;;;;;;;2.00;1.53;;;3.30;91.40;;;;;;5018951;28;20199;-76
2024/01/20 13:45:48;;;;;;;1.53;1.50;;;3.20;91.60;;;;;;5009128;28;20416;-75
2024/01/20 13:48:13;;;;;;;3.07;2.87;;;3.00;92.30;;;;;;5018431;28;20603;-79
2024/01/20 13:50:39;;;;;;;3.90;1.90;;;3.10;92.10;;;;;;5019174;28;20175;-74
2024/01/20 13:53:05;;;;;;;2.13;1.97;;;3.00;91.90;;;;;;5024864;28;20689;-73
2024/01/20 13:55:31;;;;;;;3.10;2.90;;;3.10;92.50;;;;;;5023093;28;20492;-75
2024/01/20 13:57:57;;;;;;;1.40;1.30;;;2.70;92.20;;;;;;5020843;28;21006;-79
2024/01/20 14:00:23;;;;;;;2.63;2.43;;;2.50;93.50;;;;;;5023876;28;20680;-77
2024/01/20 14:02:49;;;;;;;2.50;2.00;;;2.70;93.40;;;;;;5032005;28;20248;-78
2024/01/20 14:05:15;;;;;;;2.40;2.13;;;2.90;93.00;;;;;;5032534;28;20197;-76
2024/01/20 14:07:41;;;;;;;3.00;1.97;;;3.00;92.60;;;;;;5011350;28;20428;-73
2024/01/20 14:10:07;;;;;;;2.27;2.03;;;3.10;92.70;;;;;;5025943;28;20423;-77
2024/01/20 14:12:33;;;;;;;5.33;1.33;;;3.10;92.40;;;;;;5023234;28;20196;-80
2024/01/20 14:14:58;;;;;;;1.90;1.80;;;3.00;92.40;;;;;;5033690;28;20459;-77
2024/01/20 14:17:24;;;;;;;2.90;1.60;;;2.90;93.00;;;;;;5015858;28;20212;-75
2024/01/20 14:19:50;;;;;;;9.70;1.80;;;3.00;92.70;;;;;;5017082;28;20224;-78
2024/01/20 14:22:20;;;;;;;2.40;2.20;;;3.10;92.70;;;;;;5010202;28;20201;-75
2024/01/20 14:24:46;;;;;;;1.47;1.37;;;3.20;92.60;;;;;;5018252;28;20921;-76
2024/01/20 14:27:11;;;;;;;2.63;2.43;;;3.50;92.20;;;;;;5018736;28;20435;-76
2024/01/20 14:29:37;;;;;;;1.03;1.00;;;3.50;92.20;;;;;;5013315;28;20732;-77
2024/01/20 14:32:03;;;;;;;1.93;1.83;;;3.30;92.00;;;;;;5019252;28;20189;-75
2024/01/20 14:34:28;;;;;;;2.33;2.13;;;3.50;92.30;;;;;;5013964;28;20195;-75
2024/01/20 14:36:55;;;;;;;2.50;2.00;;;3.40;92.00;;;;;;5015049;28;20206;-74
2024/01/20 14:39:22;;;;;;;3.77;3.57;;;3.40;92.00;;;;;;5012756;28;20735;-75
2024/01/20 14:41:48;;;;;;;2.57;2.37;;;3.10;92.10;;;;;;5011269;28;20539;-76
2024/01/20 14:44:16;;;;;;;2.03;1.90;;;2.80;92.80;;;;;;5012427;28;20507;-76
2024/01/20 14:46:42;;;;;;;2.50;2.30;;;2.50;94.20;;;;;;5011518;28;20514;-77
2024/01/20 14:49:07;;;;;;;3.33;3.13;;;2.50;94.20;;;;;;5009732;28;20506;-77
2024/01/20 14:51:33;;;;;;;1.53;1.33;;;2.20;94.60;;;;;;5014945;28;20606;-74
2024/01/20 14:53:59;;;;;;;6.90;1.97;;;2.10;95.40;;;;;;5010872;28;20592;-76
2024/01/20 14:56:29;;;;;;;2.90;2.00;;;1.80;96.00;;;;;;5013174;28;20255;-76
2024/01/20 14:59:04;;;;;;;4.00;3.23;;;1.70;96.50;;;;;;5011185;28;20454;-76
2024/01/20 15:01:34;;;;;;;1.60;1.47;;;1.70;96.70;;;;;;5012366;28;20450;-77
2024/01/20 15:04:00;;;;;;;2.30;2.03;;;1.50;97.00;;;;;;5013085;28;20463;-75
2024/01/20 15:06:27;;;;;;;2.20;2.00;;;1.30;97.30;;;;;;5010719;28;20432;-76
2024/01/20 15:08:53;;;;;;;2.80;2.03;;;1.10;97.30;;;;;;5011194;28;20432;-74
2024/01/20 15:11:19;;;;;;;3.50;2.10;;;0.90;97.30;;;;;;5010617;28;20432;-75
2024/01/20 15:13:44;;;;;;;1.30;1.20;;;0.80;97.30;;;;;;5012233;28;20986;-74
2024/01/20 15:16:10;;;;;;;2.20;1.73;;;0.70;97.30;;;;;;5010736;28;20180;-74
2024/01/20 15:18:35;;;;;;;1.67;1.57;;;0.60;97.30;;;;;;5010455;28;20185;-75
2024/01/20 15:21:01;;;;;;;6.00;2.27;;;0.40;97.30;;;;;;5018787;28;20693;-76
2024/01/20 15:23:26;;;;;;;2.70;2.50;;;0.30;97.30;;;;;;5011413;28;20704;-76
2024/01/20 15:25:52;;;;;;;1.40;1.30;;;0.30;97.30;;;;;;5020912;28;20231;-74
2024/01/20 15:28:18;;;;;;;0.93;0.83;;;0.20;97.30;;;;;;5030692;28;20258;-73
2024/01/20 15:30:43;;;;;;;1.57;1.47;;;0.20;97.30;;;;;;5048138;28;20672;-75
2024/01/20 15:33:10;;;;;;;2.83;1.20;;;0.10;97.30;;;;;;5030384;28;20196;-76
2024/01/20 15:35:36;;;;;;;2.40;2.20;;;0.10;97.30;;;;;;5032090;28;20175;-75
2024/01/20 15:38:02;;;;;;;1.30;1.20;;;0.10;97.30;;;;;;5050462;28;20480;-73
2024/01/20 15:40:28;;;;;;;3.07;2.87;;;0.00;97.30;;;;;;5030934;28;20826;-76
2024/01/20 15:42:53;;;;;;;1.33;1.23;;;0.00;97.30;;;;;;5042831;28;20537;-74
2024/01/20 15:45:19;;;;;;;4.93;2.13;;;0.00;97.30;;;;;;5030759;28;20237;-76
2024/01/20 15:47:45;;;;;;;4.20;1.73;;;-0.10;97.30;;;;;;5025975;28;20186;-77
2024/01/20 15:50:10;;;;;;;1.77;1.70;;;-0.10;97.30;;;;;;5040531;28;20176;-77
2024/01/20 15:52:36;;;;;;;1.80;1.20;;;-0.20;97.30;;;;;;5035678;28;20197;-78
2024/01/20 15:55:02;;;;;;;1.77;1.67;;;-0.20;97.30;;;;;;5025870;28;20463;-78
2024/01/20 15:57:28;;;;;;;1.50;1.40;;;-0.20;97.30;;;;;;5046670;28;20684;-76
2024/01/20 15:59:53;;;;;;;1.43;1.33;;;-0.20;97.30;;;;;;5043936;28;20294;-76
2024/01/20 16:02:19;;;;;;;1.07;0.97;;;-0.30;97.30;;;;;;5040429;28;20222;-78
2024/01/20 16:04:44;;;;;;;2.70;2.20;;;-0.30;97.30;;;;;;5030913;28;20172;-77
2024/01/20 16:07:12;;;;;;;1.20;1.10;;;-0.30;97.30;;;;;;5030060;28;20172;-76
2024/01/20 16:09:38;;;;;;;1.83;1.73;;;-0.30;97.30;;;;;;5034067;28;20175;-77
2024/01/20 16:12:04;;;;;;;26.03;2.10;;;-0.40;97.30;;;;;;5043131;28;20446;-76
2024/01/20 16:14:32;;;;;;;2.03;1.90;;;-0.40;97.30;;;;;;5037863;28;20183;-77
2024/01/20 16:16:58;;;;;;;1.40;1.30;;;-0.40;97.30;;;;;;5047828;28;20954;-79
2024/01/20 16:19:24;;;;;;;1.40;1.30;;;-0.40;97.30;;;;;;5031910;28;20433;-79
2024/01/20 16:21:51;;;;;;;1.87;1.83;;;-0.40;97.30;;;;;;5048867;28;20442;-76
2024/01/20 16:24:17;;;;;;;1.47;1.37;;;-0.50;97.30;;;;;;5040434;28;20223;-77
2024/01/20 16:26:42;;;;;;;0.90;0.80;;;-0.50;97.30;;;;;;5024727;28;20851;-80
2024/01/20 16:29:08;;;;;;;1.40;1.30;;;-0.50;97.30;;;;;;5046381;28;20446;-79
2024/01/20 16:31:33;;;;;;;1.67;1.57;;;-0.60;97.30;;;;;;5030011;28;20200;-80
2024/01/20 16:33:59;;;;;;;1.20;1.10;;;-0.60;97.30;;;;;;5034445;28;20186;-79
2024/01/20 16:36:24;;;;;;;1.60;1.50;;;-0.60;97.30;;;;;;5035848;28;20270;-80
2024/01/20 16:38:50;;;;;;;1.37;1.27;;;-0.60;97.30;;;;;;5033866;28;20191;-80
2024/01/20 16:41:15;;;;;;;1.50;1.40;;;-0.60;97.30;;;;;;5039072;28;20666;-82
2024/01/20 16:43:41;;;;;;;5.63;3.57;;;-0.60;97.30;;;;;;5038996;28;20187;-81
2024/01/20 16:46:06;;;;;;;1.53;1.43;;;-0.70;97.30;;;;;;5038821;28;20184;-79
2024/01/20 16:48:32;;;;;;;1.97;1.87;;;-0.70;97.30;;;;;;5012817;28;20197;-78
2024/01/20 16:51:02;;;;;;;1.10;1.00;;;-0.70;97.30;;;;;;5016131;28;20193;-82
2024/01/20 16:53:31;;;;;;;1.50;1.40;;;-0.70;97.30;;;;;;5018306;28;20211;-80
2024/01/20 16:55:56;;;;;;;1.37;1.20;;;-0.70;97.30;;;;;;5019334;28;20776;-81
2024/01/20 16:58:22;;;;;;;2.30;2.10;;;-0.70;97.30;;;;;;5018369;28;20474;-81
2024/01/20 17:00:47;;;;;;;2.37;2.20;;;-0.70;97.30;;;;;;5024711;28;20189;-81
2024/01/20 17:03:13;;;;;;;6.80;2.00;;;-0.80;97.30;;;;;;5023710;28;20204;-82
2024/01/20 17:05:41;;;;;;;1.00;0.90;;;-0.80;97.30;;;;;;5018184;28;20192;-81
2024/01/20 17:08:07;;;;;;;1.50;1.40;;;-0.80;97.30;;;;;;5030293;28;20191;-79
2024/01/20 17:10:33;;;;;;;2.73;2.40;;;-0.90;97.30;;;;;;5012674;28;20444;-80
2024/01/20 17:12:58;;;;;;;6.03;2.43;;;-0.90;97.30;;;;;;5030104;28;20208;-81
2024/01/20 17:15:24;;;;;;;1.27;1.17;;;-0.90;97.30;;;;;;5024941;28;20946;-80
2024/01/20 17:17:50;;;;;;;2.93;2.70;;;-0.90;97.30;;;;;;5026355;28;20588;-80
2024/01/20 17:20:16;;;;;;;2.93;1.60;;;-1.00;97.30;;;;;;5034036;28;20214;-81
2024/01/20 17:22:42;;;;;;;1.80;1.50;;;-1.00;97.30;;;;;;5013617;28;20446;-80
2024/01/20 17:25:08;;;;;;;1.50;1.33;;;-1.00;97.30;;;;;;5032483;28;20514;-80
2024/01/20 17:27:38;;;;;;;1.67;1.57;;;-1.00;97.30;;;;;;5033451;28;20181;-80
2024/01/20 17:30:05;;;;;;;7.67;3.83;;;-1.00;97.30;;;;;;5014368;28;20424;-80
2024/01/20 17:32:31;;;;;;;5.13;1.77;;;-1.00;97.30;;;;;;5024545;28;20799;-81
2024/01/20 17:34:57;;;;;;;2.13;1.97;;;-1.00;97.30;;;;;;5012751;28;20438;-80
2024/01/20 17:37:23;;;;;;;2.50;2.17;;;-1.00;97.30;;;;;;5025488;28;20609;-79
2024/01/20 17:39:49;;;;;;;1.67;1.57;;;-1.10;97.30;;;;;;5020557;28;20407;-81
2024/01/20 17:42:15;;;;;;;1.63;1.53;;;-1.10;97.30;;;;;;5010435;28;20448;-80
2024/01/20 17:44:41;;;;;;;1.30;1.20;;;-1.10;97.30;;;;;;5027862;28;20474;-78
2024/01/20 17:47:07;;;;;;;1.90;1.80;;;-1.10;97.30;;;;;;5015470;28;20717;-80
2024/01/20 17:49:32;;;;;;;1.30;1.20;;;-1.10;97.30;;;;;;5028591;28;20188;-81
2024/01/20 17:51:58;;;;;;;1.30;1.20;;;-1.10;97.30;;;;;;5024777;28;20206;-81
2024/01/20 17:54:24;;;;;;;2.03;1.90;;;-1.20;97.30;;;;;;5011012;28;20709;-81